地図

経路データ

SID SEASON NUMBER BASIN SUBBASIN NAME ISO_TIME NATURE LAT LON WMO_WIND WMO_PRES WMO_AGENCY TRACK_TYPE DIST2LAND LANDFALL IFLAG USA_AGENCY USA_ATCF_ID USA_LAT USA_LON USA_RECORD USA_STATUS USA_WIND USA_PRES USA_SSHS USA_R34_NE USA_R34_SE USA_R34_SW USA_R34_NW USA_R50_NE USA_R50_SE USA_R50_SW USA_R50_NW USA_R64_NE USA_R64_SE USA_R64_SW USA_R64_NW USA_POCI USA_ROCI USA_RMW USA_EYE TOKYO_LAT TOKYO_LON TOKYO_GRADE TOKYO_WIND TOKYO_PRES TOKYO_R50_DIR TOKYO_R50_LONG TOKYO_R50_SHORT TOKYO_R30_DIR TOKYO_R30_LONG TOKYO_R30_SHORT TOKYO_LAND CMA_LAT CMA_LON CMA_CAT CMA_WIND CMA_PRES HKO_LAT HKO_LON HKO_CAT HKO_WIND HKO_PRES NEWDELHI_LAT NEWDELHI_LON NEWDELHI_GRADE NEWDELHI_WIND NEWDELHI_PRES NEWDELHI_CI NEWDELHI_DP NEWDELHI_POCI REUNION_LAT REUNION_LON REUNION_TYPE REUNION_WIND REUNION_PRES REUNION_TNUM REUNION_CI REUNION_RMW REUNION_R34_NE REUNION_R34_SE REUNION_R34_SW REUNION_R34_NW REUNION_R50_NE REUNION_R50_SE REUNION_R50_SW REUNION_R50_NW REUNION_R64_NE REUNION_R64_SE REUNION_R64_SW REUNION_R64_NW BOM_LAT BOM_LON BOM_TYPE BOM_WIND BOM_PRES BOM_TNUM BOM_CI BOM_RMW BOM_R34_NE BOM_R34_SE BOM_R34_SW BOM_R34_NW BOM_R50_NE BOM_R50_SE BOM_R50_SW BOM_R50_NW BOM_R64_NE BOM_R64_SE BOM_R64_SW BOM_R64_NW BOM_ROCI BOM_POCI BOM_EYE BOM_POS_METHOD BOM_PRES_METHOD NADI_LAT NADI_LON NADI_CAT NADI_WIND NADI_PRES WELLINGTON_LAT WELLINGTON_LON WELLINGTON_WIND WELLINGTON_PRES DS824_LAT DS824_LON DS824_STAGE DS824_WIND DS824_PRES TD9636_LAT TD9636_LON TD9636_STAGE TD9636_WIND TD9636_PRES TD9635_LAT TD9635_LON TD9635_WIND TD9635_PRES TD9635_ROCI NEUMANN_LAT NEUMANN_LON NEUMANN_CLASS NEUMANN_WIND NEUMANN_PRES MLC_LAT MLC_LON MLC_CLASS MLC_WIND MLC_PRES USA_GUST BOM_GUST BOM_GUST_PER REUNION_GUST REUNION_GUST_PER USA_SEAHGT USA_SEARAD_NE USA_SEARAD_SE USA_SEARAD_SW USA_SEARAD_NW STORM_SPEED STORM_DIR
1912266N15085 1912 48 NI BB NOT_NAMED 1912-09-22 00:00:00 TS 15.2000 84.6000 main 291 291 _________O____ -1 15.2000 84.6000 TC 30 1 33
1912266N15085 1912 48 NI BB NOT_NAMED 1912-09-22 03:00:00 TS 15.2333 84.6067 main 291 285 _________PO___ -1 15.2500 84.6100 TC 30 15.2000 84.6000 1 1 344
1912266N15085 1912 48 NI BB NOT_NAMED 1912-09-22 06:00:00 TS 15.2850 84.5888 main 285 285 _________OP___ -1 15.3000 84.6000 TC 30 15.2625 84.5720 1 1 331
1912266N15085 1912 48 NI BB NOT_NAMED 1912-09-22 09:00:00 TS 15.3372 84.5522 main 285 270 _________PP___ -1 15.3500 84.5575 TC 30 15.3200 84.5451 1 1 322
1912266N15085 1912 48 NI BB NOT_NAMED 1912-09-22 12:00:00 TS 15.3838 84.5104 main 270 270 _________OP___ -1 15.4000 84.5000 TC 30 15.3675 84.5207 1 1 318
1912266N15085 1912 48 NI BB NOT_NAMED 1912-09-22 15:00:00 TS 15.4250 84.4750 main 270 256 _________PO___ -1 15.4500 84.4500 TC 30 15.4000 84.5000 1 1 316
1912266N15085 1912 48 NI BB NOT_NAMED 1912-09-22 18:00:00 TS 15.4587 84.4407 main 256 256 _________OP___ -1 15.5000 84.4000 TC 30 15.4174 84.4814 1 1 314
1912266N15085 1912 48 NI BB NOT_NAMED 1912-09-22 21:00:00 TS 15.4799 84.4123 main 256 256 _________PP___ -1 15.5200 84.3724 TC 30 15.4399 84.4521 1 1 314
1912266N15085 1912 48 NI BB NOT_NAMED 1912-09-23 00:00:00 TS 15.5462 84.3484 main 246 226 _________OP___ -1 15.6000 84.3000 TC 30 15.4924 84.3969 1 3 320
1912266N15085 1912 48 NI BB NOT_NAMED 1912-09-23 03:00:00 TS 15.7100 84.2113 main 226 197 _________PO___ -1 15.8200 84.1226 TC 30 15.6000 84.3000 1 5 322
1912266N15085 1912 48 NI BB NOT_NAMED 1912-09-23 06:00:00 TS 15.9524 84.0217 main 192 163 _________OP___ -1 16.1000 83.9000 TC 30 15.8048 84.1434 1 6 323
1912266N15085 1912 48 NI BB NOT_NAMED 1912-09-23 09:00:00 TS 16.2101 83.8227 main 163 128 _________PP___ -1 16.3575 83.7000 TC 30 16.0626 83.9454 1 7 323
1912266N15085 1912 48 NI BB NOT_NAMED 1912-09-23 12:00:00 TS 16.4696 83.6123 main 128 99 _________OP___ -1 16.6000 83.5000 TC 30 16.3391 83.7247 1 6 321
1912266N15085 1912 48 NI BB NOT_NAMED 1912-09-23 15:00:00 TS 16.7075 83.4000 main 99 70 _________PO___ -1 16.8150 83.3000 TC 30 16.6000 83.5000 1 6 318
1912266N15085 1912 48 NI BB NOT_NAMED 1912-09-23 18:00:00 TS 16.8837 83.2279 main 70 54 _________OP___ -1 17.0000 83.1000 TC 30 16.7675 83.3558 1 4 316
1912266N15085 1912 48 NI BB NOT_NAMED 1912-09-23 21:00:00 TS 17.0231 83.0777 main 54 24 _________PP___ -1 17.1272 82.9521 TC 30 16.9189 83.2033 1 5 310
1912266N15085 1912 48 NI BB NOT_NAMED 1912-09-24 00:00:00 TS 17.1930 82.8496 main 22 0 _________OP___ -1 17.3000 82.7000 TC 30 17.0860 82.9992 1 7 306
1912266N15085 1912 48 NI BB NOT_NAMED 1912-09-24 03:00:00 TS 17.4601 82.4514 main 0 0 _________PO___ -1 17.6202 82.2027 TC 30 17.3000 82.7000 1 11 305
1912266N15085 1912 48 NI BB NOT_NAMED 1912-09-24 06:00:00 TS 17.7960 81.9295 main 0 0 _________OP___ -1 18.0000 81.6000 TC 30 17.5920 82.2590 1 12 304
1912266N15085 1912 48 NI BB NOT_NAMED 1912-09-24 09:00:00 TS 18.1377 81.3886 main 0 0 _________PP___ -1 18.3423 81.0571 TC 30 17.9330 81.7201 1 13 304
1912266N15085 1912 48 NI BB NOT_NAMED 1912-09-24 12:00:00 TS 18.5037 80.8106 main 0 0 _________OP___ -1 18.7000 80.5000 TC 30 18.3075 81.1211 1 14 304
1912266N15085 1912 48 NI BB NOT_NAMED 1912-09-24 15:00:00 TS 18.8962 80.2037 main 0 0 _________PO___ -1 19.0924 79.9073 TC 30 18.7000 80.5000 1 14 304
1912266N15085 1912 48 NI BB NOT_NAMED 1912-09-24 18:00:00 TS 19.2872 79.5690 main 0 0 _________OP___ -1 19.5000 79.3000 TC 30 19.0744 79.8381 1 15 303
1912266N15085 1912 48 NI BB NOT_NAMED 1912-09-24 21:00:00 TS 19.6784 78.9070 main 0 0 _________PP___ -1 19.8928 78.6401 TC 30 19.4640 79.1739 1 14 305
1912266N15085 1912 48 NI BB NOT_NAMED 1912-09-25 00:00:00 TS 20.0857 78.3363 main 0 0 _________OP___ -1 20.3000 78.1000 TC 30 19.8714 78.5727 1 12 313
1912266N15085 1912 48 NI AS NOT_NAMED 1912-09-25 03:00:00 TS 20.5173 77.9586 main 0 0 _________PO___ -1 20.7347 77.8171 TC 30 20.3000 78.1000 1 11 329
1912266N15085 1912 48 NI AS NOT_NAMED 1912-09-25 06:00:00 TS 20.9781 77.7544 main 0 0 _________OP___ -1 21.2000 77.7000 TC 30 20.7562 77.8088 1 10 342
1912266N15085 1912 48 NI AS NOT_NAMED 1912-09-25 09:00:00 TS 21.4667 77.6367 main 0 0 _________PP___ -1 21.7000 77.6198 TC 30 21.2335 77.6536 1 10 352
1912266N15085 1912 48 NI AS NOT_NAMED 1912-09-25 12:00:00 TS 21.9596 77.5984 main 0 0 _________OP___ -1 22.2000 77.6000 TC 30 21.7192 77.5967 1 10 358
1912266N15085 1912 48 NI AS NOT_NAMED 1912-09-25 15:00:00 TS 22.4287 77.5888 main 0 0 _________PO___ -1 22.6575 77.5776 TC 30 22.2000 77.6000 1 9 2
1912266N15085 1912 48 NI AS NOT_NAMED 1912-09-25 18:00:00 TS 22.8519 77.6175 main 0 0 _________OP___ -1 23.1000 77.6000 TC 30 22.6658 77.6306 1 9 5
1912266N15085 1912 48 NI AS NOT_NAMED 1912-09-25 21:00:00 TS 23.2898 77.6795 main 0 0 _________PP___ -1 23.5475 77.6823 TC 30 23.1181 77.6776 1 9 9
1912266N15085 1912 48 NI AS NOT_NAMED 1912-09-26 00:00:00 TS 23.7075 77.7573 main 0 0 _________OP___ -1 24.0000 77.8000 TC 30 23.5613 77.7359 1 7 9
1912266N15085 1912 48 NI AS NOT_NAMED 1912-09-26 03:00:00 NR 24.0000 77.8000 main 0 __________O___ -1 TC 24.0000 77.8000 1 6 9

IBTrACS Databaseについて

本データベースは、米国NOAAが公開する1842年以降の世界の熱帯低気圧のベストトラックデータアーカイブInternational Best Track Archive for Climate Stewardship (IBTrACS)を、ウェブで閲覧しやすい形式に変換したものです。

最終更新日:2021-12-01